Time;durP1;ratioP1;P1;durP2;ratioP2;P2;SDS_P1;SDS_P2;PMS_P1;PMS_P2;Temp;Humidity;BMP_temperature;BMP_pressure;BME280_temperature;BME280_humidity;BME280_pressure;Samples;Min_cycle;Max_cycle;Signal;HPM_P1;HPM_P2
2022/03/29 00:02:03;;;;;;;57.93;27.67;;;;;;;;;;5008491;28;20306;-65
2022/03/29 00:04:29;;;;;;;57.60;28.83;;;;;;;;;;5020945;28;20222;-66
2022/03/29 00:06:54;;;;;;;57.85;27.38;;;;;;;;;;5014762;28;20195;-66
2022/03/29 00:09:20;;;;;;;57.13;27.77;;;;;;;;;;5018222;28;20444;-66
2022/03/29 00:11:46;;;;;;;56.28;26.88;;;;;;;;;;5019907;28;20544;-66
2022/03/29 00:14:12;;;;;;;53.25;28.00;;;;;;;;;;5023170;28;20290;-66
2022/03/29 00:16:38;;;;;;;55.90;27.40;;;;;;;;;;5014742;28;20210;-67
2022/03/29 00:19:04;;;;;;;56.03;27.05;;;;;;;;;;5021909;28;20264;-67
2022/03/29 00:21:29;;;;;;;62.33;29.15;;;;;;;;;;5023442;28;20266;-66
2022/03/29 00:23:55;;;;;;;62.95;29.92;;;;;;;;;;5025667;28;20178;-66
2022/03/29 00:26:20;;;;;;;60.13;27.92;;;;;;;;;;5017696;28;20186;-67
2022/03/29 00:28:47;;;;;;;56.10;27.43;;;;;;;;;;5013934;28;20183;-67
2022/03/29 00:31:14;;;;;;;56.38;27.35;;;;;;;;;;5018480;28;20199;-67
2022/03/29 00:33:39;;;;;;;54.35;28.20;;;;;;;;;;5021331;28;20186;-66
2022/03/29 00:36:05;;;;;;;52.20;25.90;;;;;;;;;;5019765;28;20190;-66
2022/03/29 00:38:30;;;;;;;54.10;26.90;;;;;;;;;;5023856;28;20189;-66
2022/03/29 00:40:58;;;;;;;47.80;23.50;;;;;;;;;;5023373;28;20185;-66
2022/03/29 00:43:24;;;;;;;48.90;23.48;;;;;;;;;;5021189;28;20186;-66
2022/03/29 00:45:49;;;;;;;46.50;23.40;;;;;;;;;;5019558;28;20182;-67
2022/03/29 00:48:15;;;;;;;55.97;24.55;;;;;;;;;;5023251;28;20192;-66
2022/03/29 00:50:41;;;;;;;46.65;23.15;;;;;;;;;;5013110;28;20178;-66
2022/03/29 00:53:09;;;;;;;47.83;22.73;;;;;;;;;;5023942;28;20281;-66
2022/03/29 00:55:35;;;;;;;44.37;22.43;;;;;;;;;;5020679;28;20217;-66
2022/03/29 00:58:04;;;;;;;51.08;23.30;;;;;;;;;;5019942;28;20189;-66
2022/03/29 01:00:31;;;;;;;47.08;23.83;;;;;;;;;;5022248;28;20614;-66
2022/03/29 01:02:56;;;;;;;46.55;23.35;;;;;;;;;;5019156;28;20182;-66
2022/03/29 01:05:22;;;;;;;46.58;23.13;;;;;;;;;;5021927;28;20753;-66
2022/03/29 01:07:47;;;;;;;49.95;23.27;;;;;;;;;;5020196;28;20240;-67
2022/03/29 01:10:13;;;;;;;47.97;21.60;;;;;;;;;;5018466;28;20225;-67
2022/03/29 01:12:39;;;;;;;49.50;22.70;;;;;;;;;;5016326;28;20286;-66
2022/03/29 01:15:06;;;;;;;45.67;21.60;;;;;;;;;;5016801;28;20214;-66
2022/03/29 01:17:38;;;;;;;42.90;21.73;;;;;;;;;;5018870;28;20272;-67
2022/03/29 01:20:07;;;;;;;49.30;23.13;;;;;;;;;;5023552;28;20174;-66
2022/03/29 01:22:33;;;;;;;46.58;23.63;;;;;;;;;;5013702;28;20182;-66
2022/03/29 01:24:59;;;;;;;45.90;21.40;;;;;;;;;;5017284;28;20181;-67
2022/03/29 01:27:24;;;;;;;49.20;22.55;;;;;;;;;;5023112;28;20178;-66
2022/03/29 01:29:56;;;;;;;44.92;21.48;;;;;;;;;;5015717;28;20228;-66
2022/03/29 01:32:23;;;;;;;49.08;22.55;;;;;;;;;;5013725;28;20712;-66
2022/03/29 01:34:48;;;;;;;48.38;24.55;;;;;;;;;;5014896;28;20513;-66
2022/03/29 01:37:14;;;;;;;45.87;23.33;;;;;;;;;;5009245;28;20186;-67
2022/03/29 01:39:39;;;;;;;47.23;23.63;;;;;;;;;;5021494;28;20595;-66
2022/03/29 01:42:05;;;;;;;48.33;23.60;;;;;;;;;;5022427;28;20182;-66
2022/03/29 01:44:31;;;;;;;49.13;24.30;;;;;;;;;;5020742;28;20208;-66
2022/03/29 01:46:56;;;;;;;55.00;25.43;;;;;;;;;;5016343;28;20186;-66
2022/03/29 01:49:22;;;;;;;49.83;24.03;;;;;;;;;;5018342;28;20182;-67
2022/03/29 01:51:48;;;;;;;54.25;24.77;;;;;;;;;;5013951;28;20178;-67
2022/03/29 01:54:13;;;;;;;49.83;24.20;;;;;;;;;;5010400;28;20170;-67
2022/03/29 01:56:39;;;;;;;52.00;23.70;;;;;;;;;;5013785;28;20209;-67
2022/03/29 01:59:06;;;;;;;54.55;24.80;;;;;;;;;;5010647;28;20179;-67
2022/03/29 02:01:41;;;;;;;58.00;25.48;;;;;;;;;;5012325;28;20182;-66
2022/03/29 02:04:07;;;;;;;60.97;25.92;;;;;;;;;;5015197;28;20222;-66
2022/03/29 02:06:33;;;;;;;58.03;25.38;;;;;;;;;;5014503;28;20181;-67
2022/03/29 02:08:59;;;;;;;57.08;25.58;;;;;;;;;;5015542;28;20264;-67
2022/03/29 02:11:24;;;;;;;60.30;26.73;;;;;;;;;;5013625;28;20266;-67
2022/03/29 02:13:49;;;;;;;56.65;25.27;;;;;;;;;;5020033;28;20557;-67
2022/03/29 02:16:15;;;;;;;54.67;24.63;;;;;;;;;;5017645;28;20845;-66
2022/03/29 02:18:41;;;;;;;52.07;25.20;;;;;;;;;;5014734;28;20723;-67
2022/03/29 02:21:06;;;;;;;51.25;24.02;;;;;;;;;;5015458;28;20518;-66
2022/03/29 02:23:31;;;;;;;47.03;22.50;;;;;;;;;;5019215;28;20649;-66
2022/03/29 02:25:57;;;;;;;48.70;23.30;;;;;;;;;;5023903;28;20265;-66
2022/03/29 02:28:22;;;;;;;45.70;23.10;;;;;;;;;;5014846;28;20213;-65
2022/03/29 02:30:48;;;;;;;50.80;23.77;;;;;;;;;;5023974;28;20221;-66
2022/03/29 02:33:15;;;;;;;52.72;22.67;;;;;;;;;;5012040;28;20613;-66
2022/03/29 02:35:41;;;;;;;48.17;22.30;;;;;;;;;;5015359;28;20657;-66
2022/03/29 02:38:07;;;;;;;46.28;21.85;;;;;;;;;;5018994;28;20183;-66
2022/03/29 02:40:32;;;;;;;54.47;24.55;;;;;;;;;;5017816;28;20179;-66
2022/03/29 02:42:58;;;;;;;48.97;23.57;;;;;;;;;;5021958;28;20182;-66
2022/03/29 02:45:25;;;;;;;48.55;22.50;;;;;;;;;;5016271;28;20185;-66
2022/03/29 02:47:54;;;;;;;47.17;22.03;;;;;;;;;;5018424;28;20273;-66
2022/03/29 02:50:20;;;;;;;52.13;22.88;;;;;;;;;;5020306;28;20673;-66
2022/03/29 02:52:57;;;;;;;51.63;22.60;;;;;;;;;;5018933;28;20197;-66
2022/03/29 02:55:25;;;;;;;46.60;21.85;;;;;;;;;;5010886;28;20230;-66
2022/03/29 02:57:51;;;;;;;49.53;23.35;;;;;;;;;;5018253;28;20594;-66
2022/03/29 03:00:17;;;;;;;50.63;22.67;;;;;;;;;;5022437;28;20274;-66
2022/03/29 03:02:51;;;;;;;53.53;23.47;;;;;;;;;;5018236;28;20663;-66
2022/03/29 03:05:19;;;;;;;52.70;22.67;;;;;;;;;;5023354;28;20731;-66
2022/03/29 03:07:45;;;;;;;46.50;22.93;;;;;;;;;;5028165;28;20189;-66
2022/03/29 03:10:12;;;;;;;54.80;23.37;;;;;;;;;;5018179;28;20183;-66
2022/03/29 03:12:39;;;;;;;47.43;21.30;;;;;;;;;;5016488;28;20268;-66
2022/03/29 03:15:07;;;;;;;53.80;22.20;;;;;;;;;;5020139;28;20194;-67
2022/03/29 03:17:32;;;;;;;52.27;22.10;;;;;;;;;;5021642;28;20193;-66
2022/03/29 03:19:58;;;;;;;51.67;22.50;;;;;;;;;;5023293;28;20184;-66
2022/03/29 03:22:23;;;;;;;50.22;22.75;;;;;;;;;;5023250;28;20238;-66
2022/03/29 03:24:49;;;;;;;55.20;23.83;;;;;;;;;;5014241;28;20634;-66
2022/03/29 03:27:16;;;;;;;49.93;22.83;;;;;;;;;;5021604;28;20182;-66
2022/03/29 03:29:42;;;;;;;49.80;22.73;;;;;;;;;;5018893;28;20229;-66
2022/03/29 03:32:08;;;;;;;49.97;22.57;;;;;;;;;;5018589;28;20205;-66
2022/03/29 03:34:34;;;;;;;53.67;22.85;;;;;;;;;;5020297;28;20197;-66
2022/03/29 03:37:02;;;;;;;47.80;22.77;;;;;;;;;;5023649;28;20634;-66
2022/03/29 03:39:28;;;;;;;52.90;23.57;;;;;;;;;;5023692;28;20556;-66
2022/03/29 03:41:53;;;;;;;51.10;23.43;;;;;;;;;;5020221;28;20190;-67
2022/03/29 03:44:19;;;;;;;52.85;22.77;;;;;;;;;;5022135;28;20181;-67
2022/03/29 03:46:44;;;;;;;56.00;24.20;;;;;;;;;;5026472;28;20178;-66
2022/03/29 03:49:10;;;;;;;58.97;24.20;;;;;;;;;;5024158;28;20183;-67
2022/03/29 03:51:35;;;;;;;54.27;23.37;;;;;;;;;;5023201;28;20186;-67
2022/03/29 03:54:00;;;;;;;56.47;24.27;;;;;;;;;;5023274;28;20649;-66
2022/03/29 03:56:26;;;;;;;57.07;24.07;;;;;;;;;;5022345;28;20200;-66
2022/03/29 03:58:51;;;;;;;51.57;23.67;;;;;;;;;;5024694;28;20213;-66
2022/03/29 04:01:17;;;;;;;56.50;25.53;;;;;;;;;;5018353;28;20187;-68
2022/03/29 04:03:42;;;;;;;57.90;25.23;;;;;;;;;;5022207;28;20716;-67
2022/03/29 04:06:07;;;;;;;56.83;24.93;;;;;;;;;;5017372;28;20262;-66
2022/03/29 04:08:33;;;;;;;59.60;25.77;;;;;;;;;;5016567;28;20193;-66
2022/03/29 04:10:59;;;;;;;64.40;25.87;;;;;;;;;;5018692;28;20385;-66
2022/03/29 04:13:24;;;;;;;65.57;28.80;;;;;;;;;;5024063;28;20512;-66
2022/03/29 04:15:50;;;;;;;62.37;27.17;;;;;;;;;;5019911;28;20306;-66
2022/03/29 04:18:16;;;;;;;68.43;28.63;;;;;;;;;;5023348;28;20553;-67
2022/03/29 04:20:42;;;;;;;68.00;28.23;;;;;;;;;;5018838;28;20784;-67
2022/03/29 04:23:07;;;;;;;74.63;28.83;;;;;;;;;;5021238;28;20256;-66
2022/03/29 04:25:34;;;;;;;70.07;29.57;;;;;;;;;;5018309;28;20230;-66
2022/03/29 04:27:59;;;;;;;72.37;30.27;;;;;;;;;;5021418;28;20712;-66
2022/03/29 04:30:26;;;;;;;71.03;29.17;;;;;;;;;;5020551;28;20234;-66
2022/03/29 04:32:52;;;;;;;68.07;28.37;;;;;;;;;;5020506;28;20208;-66
2022/03/29 04:35:17;;;;;;;67.03;28.40;;;;;;;;;;5013208;28;20198;-66
2022/03/29 04:37:43;;;;;;;68.10;28.53;;;;;;;;;;5018056;28;20225;-66
2022/03/29 04:40:09;;;;;;;68.23;28.87;;;;;;;;;;5021486;28;20186;-67
2022/03/29 04:42:45;;;;;;;76.23;29.57;;;;;;;;;;5022136;28;20186;-66
2022/03/29 04:45:12;;;;;;;69.10;28.30;;;;;;;;;;5019877;28;20170;-66
2022/03/29 04:47:39;;;;;;;66.03;29.03;;;;;;;;;;5023349;28;20174;-66
2022/03/29 04:50:05;;;;;;;70.43;29.33;;;;;;;;;;5022486;28;20186;-66
2022/03/29 04:52:30;;;;;;;66.93;28.87;;;;;;;;;;5011848;28;20178;-67
2022/03/29 04:54:55;;;;;;;76.20;29.17;;;;;;;;;;5019242;28;20712;-67
2022/03/29 04:57:21;;;;;;;74.70;29.80;;;;;;;;;;5025352;28;20178;-66
2022/03/29 04:59:46;;;;;;;73.17;28.47;;;;;;;;;;5025532;28;20242;-66
2022/03/29 05:02:11;;;;;;;64.30;27.33;;;;;;;;;;5017776;28;20174;-66
2022/03/29 05:04:37;;;;;;;72.77;28.37;;;;;;;;;;5018010;28;20221;-66
2022/03/29 05:07:02;;;;;;;69.40;28.63;;;;;;;;;;5016804;28;20236;-66
2022/03/29 05:09:28;;;;;;;63.60;27.77;;;;;;;;;;5019847;28;20236;-66
2022/03/29 05:11:53;;;;;;;67.70;30.70;;;;;;;;;;5019911;28;20175;-66
2022/03/29 05:14:18;;;;;;;67.60;30.37;;;;;;;;;;5020400;28;20734;-66
2022/03/29 05:16:44;;;;;;;73.17;31.43;;;;;;;;;;5020557;28;20190;-66
2022/03/29 05:19:09;;;;;;;71.17;29.23;;;;;;;;;;5019528;28;20255;-66
2022/03/29 05:21:34;;;;;;;72.00;29.13;;;;;;;;;;5015552;28;20179;-65
2022/03/29 05:24:00;;;;;;;69.27;29.53;;;;;;;;;;5015103;28;20281;-66
2022/03/29 05:26:25;;;;;;;67.40;28.50;;;;;;;;;;5015724;28;20166;-65
2022/03/29 05:28:50;;;;;;;76.93;31.00;;;;;;;;;;5020833;28;20567;-67
2022/03/29 05:31:16;;;;;;;67.93;30.73;;;;;;;;;;5017674;28;20705;-66
2022/03/29 05:33:42;;;;;;;74.33;31.77;;;;;;;;;;5010528;28;20183;-66
2022/03/29 05:36:08;;;;;;;73.00;32.10;;;;;;;;;;5009784;28;20195;-66
2022/03/29 05:38:33;;;;;;;75.17;31.87;;;;;;;;;;5005570;28;20244;-66
2022/03/29 05:40:58;;;;;;;75.33;31.27;;;;;;;;;;5022400;28;20178;-66
2022/03/29 05:43:25;;;;;;;70.17;30.37;;;;;;;;;;5016198;28;20340;-66
2022/03/29 05:48:52;;;;;;;76.83;30.87;;;;;;;;;;5026061;28;20184;-66
2022/03/29 05:48:55;;;;;;;70.43;31.27;;;;;;;;;;5018137;28;20564;-66
2022/03/29 05:51:22;;;;;;;73.97;29.00;;;;;;;;;;5024113;28;20184;-66
2022/03/29 05:53:48;;;;;;;68.60;31.90;;;;;;;;;;5018109;28;20217;-66
2022/03/29 05:56:14;;;;;;;71.33;31.30;;;;;;;;;;5016874;28;20194;-66
2022/03/29 05:58:39;;;;;;;70.37;30.73;;;;;;;;;;5016511;28;20186;-66
2022/03/29 06:01:04;;;;;;;69.40;30.63;;;;;;;;;;5020455;28;20178;-67
2022/03/29 06:03:30;;;;;;;75.07;31.60;;;;;;;;;;5014971;28;20321;-66
2022/03/29 06:05:55;;;;;;;65.70;28.87;;;;;;;;;;5020663;28;20316;-66
2022/03/29 06:08:20;;;;;;;64.30;28.93;;;;;;;;;;5020498;28;20280;-66
2022/03/29 06:10:46;;;;;;;68.27;30.83;;;;;;;;;;5024062;28;20781;-66
2022/03/29 06:13:12;;;;;;;68.83;30.27;;;;;;;;;;5022587;28;20200;-66
2022/03/29 06:15:38;;;;;;;63.77;29.43;;;;;;;;;;5023309;28;20584;-67
2022/03/29 06:18:03;;;;;;;74.33;31.10;;;;;;;;;;5024838;28;20186;-67
2022/03/29 06:20:29;;;;;;;64.37;28.47;;;;;;;;;;5024048;28;20205;-66
2022/03/29 06:22:55;;;;;;;68.13;30.53;;;;;;;;;;5023839;28;20192;-66
2022/03/29 06:25:20;;;;;;;68.17;30.80;;;;;;;;;;5024839;28;20189;-66
2022/03/29 06:27:45;;;;;;;67.60;30.73;;;;;;;;;;5023944;28;20649;-66
2022/03/29 06:30:11;;;;;;;74.30;32.63;;;;;;;;;;5021608;28;20186;-66
2022/03/29 06:32:51;;;;;;;67.93;31.23;;;;;;;;;;5021328;28;20232;-67
2022/03/29 06:35:24;;;;;;;69.37;31.03;;;;;;;;;;5021157;28;20533;-67
2022/03/29 06:37:51;;;;;;;67.37;31.90;;;;;;;;;;5024757;28;20190;-67
2022/03/29 06:40:17;;;;;;;64.60;30.20;;;;;;;;;;5024206;28;20182;-66
2022/03/29 06:42:43;;;;;;;59.73;30.20;;;;;;;;;;5026179;28;20660;-67
2022/03/29 06:45:09;;;;;;;54.83;29.10;;;;;;;;;;5027510;28;20224;-66
2022/03/29 06:47:35;;;;;;;56.30;27.93;;;;;;;;;;5023097;28;20695;-66
2022/03/29 06:50:01;;;;;;;58.30;28.63;;;;;;;;;;5027440;28;20212;-66
2022/03/29 06:52:28;;;;;;;53.13;27.20;;;;;;;;;;5027614;28;20186;-67
2022/03/29 06:54:53;;;;;;;55.03;26.77;;;;;;;;;;5028366;28;20210;-67
2022/03/29 06:57:19;;;;;;;53.80;26.73;;;;;;;;;;5028395;28;20518;-67
2022/03/29 06:59:44;;;;;;;60.50;28.17;;;;;;;;;;5028374;28;20204;-67
2022/03/29 07:02:09;;;;;;;54.03;27.13;;;;;;;;;;5028420;28;20191;-67
2022/03/29 07:04:35;;;;;;;53.07;26.23;;;;;;;;;;5024623;28;20226;-67
2022/03/29 07:07:00;;;;;;;55.13;27.83;;;;;;;;;;5027453;28;20244;-66
2022/03/29 07:12:11;;;;;;;50.07;25.53;;;;;;;;;;5022311;28;20208;-66
2022/03/29 07:14:36;;;;;;;46.47;24.90;;;;;;;;;;5023887;28;20234;-66
2022/03/29 07:17:05;;;;;;;46.92;23.95;;;;;;;;;;5024874;28;20575;-66
2022/03/29 07:19:30;;;;;;;46.20;23.50;;;;;;;;;;5025358;28;20554;-66
2022/03/29 07:21:56;;;;;;;44.90;23.58;;;;;;;;;;5026731;28;20182;-66
2022/03/29 07:24:21;;;;;;;50.45;24.50;;;;;;;;;;5023562;28;20186;-66
2022/03/29 07:26:46;;;;;;;43.85;23.65;;;;;;;;;;5028217;28;20182;-66
2022/03/29 07:29:12;;;;;;;45.92;24.98;;;;;;;;;;5026575;28;20536;-66
2022/03/29 07:31:37;;;;;;;45.72;23.83;;;;;;;;;;5029289;28;20201;-67
2022/03/29 07:34:04;;;;;;;47.92;24.60;;;;;;;;;;5023559;28;20187;-67
2022/03/29 07:36:29;;;;;;;47.88;23.17;;;;;;;;;;5016038;28;20221;-67
2022/03/29 07:38:54;;;;;;;46.60;23.15;;;;;;;;;;5027860;28;20336;-66
2022/03/29 07:41:20;;;;;;;41.97;23.23;;;;;;;;;;5027578;28;20688;-67
2022/03/29 07:43:46;;;;;;;47.42;22.85;;;;;;;;;;5028460;28;20190;-68
2022/03/29 07:46:12;;;;;;;44.97;22.65;;;;;;;;;;5026533;28;20189;-66
2022/03/29 07:48:37;;;;;;;43.42;21.92;;;;;;;;;;5027007;28;20182;-67
2022/03/29 07:51:02;;;;;;;41.08;21.63;;;;;;;;;;5025613;28;20440;-66
2022/03/29 07:53:29;;;;;;;39.13;20.58;;;;;;;;;;5025816;28;20201;-67
2022/03/29 07:55:54;;;;;;;38.45;20.60;;;;;;;;;;5025115;28;20205;-65
2022/03/29 07:58:20;;;;;;;37.78;20.48;;;;;;;;;;5027792;28;20675;-66
2022/03/29 08:00:49;;;;;;;41.80;21.77;;;;;;;;;;5027659;28;20198;-66
2022/03/29 08:03:19;;;;;;;40.58;21.40;;;;;;;;;;5025833;28;20650;-66
2022/03/29 08:05:46;;;;;;;42.22;20.98;;;;;;;;;;5027410;28;20309;-68
2022/03/29 08:08:13;;;;;;;38.35;20.50;;;;;;;;;;5027469;28;20339;-67
2022/03/29 08:10:39;;;;;;;36.28;19.25;;;;;;;;;;5026654;28;20185;-67
2022/03/29 08:13:10;;;;;;;38.60;20.90;;;;;;;;;;5022716;28;20185;-67
2022/03/29 08:15:37;;;;;;;41.53;20.25;;;;;;;;;;5026340;28;20206;-67
2022/03/29 08:18:02;;;;;;;39.58;21.23;;;;;;;;;;5027371;28;20263;-67
2022/03/29 08:20:29;;;;;;;37.60;20.27;;;;;;;;;;5026583;28;20201;-67
2022/03/29 08:22:59;;;;;;;38.08;20.42;;;;;;;;;;5022461;28;20214;-67
2022/03/29 08:25:24;;;;;;;39.97;20.10;;;;;;;;;;5020189;28;20174;-66
2022/03/29 08:27:50;;;;;;;35.92;20.20;;;;;;;;;;5023145;28;20601;-67
2022/03/29 08:30:15;;;;;;;31.45;18.73;;;;;;;;;;5025082;28;20217;-66
2022/03/29 08:32:42;;;;;;;35.95;19.38;;;;;;;;;;5023951;28;20295;-66
2022/03/29 08:35:10;;;;;;;39.67;18.48;;;;;;;;;;5024664;28;20272;-67
2022/03/29 08:37:36;;;;;;;36.88;19.52;;;;;;;;;;5024272;28;20181;-67
2022/03/29 08:40:04;;;;;;;38.58;19.55;;;;;;;;;;5026111;28;20517;-67
2022/03/29 08:42:29;;;;;;;35.85;19.33;;;;;;;;;;5028191;28;20504;-67
2022/03/29 08:44:55;;;;;;;33.20;18.38;;;;;;;;;;5026121;28;20174;-67
2022/03/29 08:47:20;;;;;;;39.55;19.60;;;;;;;;;;5021683;28;20178;-67
2022/03/29 08:49:49;;;;;;;32.08;18.15;;;;;;;;;;5024974;28;20309;-67
2022/03/29 08:52:17;;;;;;;36.65;19.33;;;;;;;;;;5022865;28;20190;-67
2022/03/29 08:54:43;;;;;;;38.17;19.80;;;;;;;;;;5024723;28;20739;-67
2022/03/29 08:57:08;;;;;;;34.83;17.75;;;;;;;;;;5024405;28;20182;-67
2022/03/29 08:59:33;;;;;;;32.88;19.05;;;;;;;;;;5024280;28;20569;-67
2022/03/29 09:02:08;;;;;;;35.08;18.75;;;;;;;;;;5024757;28;20180;-67
2022/03/29 09:04:33;;;;;;;34.88;18.80;;;;;;;;;;5022933;28;20232;-67
2022/03/29 09:07:00;;;;;;;40.88;20.25;;;;;;;;;;5021749;28;20653;-67
2022/03/29 09:09:31;;;;;;;37.28;19.85;;;;;;;;;;5024154;28;20289;-67
2022/03/29 09:11:59;;;;;;;37.83;19.38;;;;;;;;;;5022688;28;20186;-67
2022/03/29 09:14:28;;;;;;;37.97;18.60;;;;;;;;;;5024233;28;20321;-67
2022/03/29 09:16:53;;;;;;;33.95;18.67;;;;;;;;;;5022907;28;20174;-66
2022/03/29 09:19:23;;;;;;;34.55;19.27;;;;;;;;;;5022958;28;20524;-67
2022/03/29 09:21:49;;;;;;;35.28;18.75;;;;;;;;;;5024397;28;20189;-66
2022/03/29 09:24:18;;;;;;;37.80;18.35;;;;;;;;;;5021798;28;20182;-67
2022/03/29 09:26:45;;;;;;;34.53;16.85;;;;;;;;;;5024987;28;20277;-67
2022/03/29 09:29:24;;;;;;;36.95;18.55;;;;;;;;;;5022649;28;20190;-67
2022/03/29 09:32:06;;;;;;;38.83;18.63;;;;;;;;;;5026100;28;20592;-66
2022/03/29 09:34:32;;;;;;;34.50;17.83;;;;;;;;;;5014893;28;20585;-67
2022/03/29 09:36:59;;;;;;;31.58;18.33;;;;;;;;;;5022587;28;20179;-67
2022/03/29 09:39:39;;;;;;;37.45;19.98;;;;;;;;;;5024678;28;20653;-67
2022/03/29 09:42:12;;;;;;;32.15;17.60;;;;;;;;;;5023751;28;20571;-67
2022/03/29 09:44:43;;;;;;;34.58;18.23;;;;;;;;;;5024138;28;20466;-66
2022/03/29 09:47:12;;;;;;;34.25;17.75;;;;;;;;;;5026056;28;20190;-67
2022/03/29 09:50:08;;;;;;;33.05;18.98;;;;;;;;;;5022419;28;20175;-67
2022/03/29 09:52:39;;;;;;;32.88;17.80;;;;;;;;;;5023009;28;20260;-67
2022/03/29 09:55:05;;;;;;;35.17;19.45;;;;;;;;;;5023409;28;20673;-67
2022/03/29 09:57:44;;;;;;;36.58;19.77;;;;;;;;;;5022502;28;20189;-67
2022/03/29 10:00:13;;;;;;;32.47;18.92;;;;;;;;;;5022390;28;20210;-67
2022/03/29 10:02:41;;;;;;;35.53;18.88;;;;;;;;;;5022810;28;20264;-67
2022/03/29 10:05:09;;;;;;;34.38;19.50;;;;;;;;;;5024489;28;20232;-67
2022/03/29 10:07:41;;;;;;;36.67;19.33;;;;;;;;;;5025376;28;20502;-67
2022/03/29 10:10:07;;;;;;;35.90;19.42;;;;;;;;;;5023929;28;20185;-67
2022/03/29 10:12:33;;;;;;;39.15;19.60;;;;;;;;;;5020907;28;20189;-67
2022/03/29 10:14:59;;;;;;;33.47;19.70;;;;;;;;;;5022719;28;20194;-68
2022/03/29 10:17:25;;;;;;;39.20;19.70;;;;;;;;;;5024754;28;20181;-67
2022/03/29 10:19:51;;;;;;;39.38;19.88;;;;;;;;;;5024610;28;20611;-68
2022/03/29 10:22:16;;;;;;;41.22;20.40;;;;;;;;;;5020174;28;20174;-67
2022/03/29 10:24:42;;;;;;;34.80;19.63;;;;;;;;;;5026134;28;20248;-67
2022/03/29 10:27:08;;;;;;;36.47;20.10;;;;;;;;;;5026753;28;20620;-67
2022/03/29 10:29:35;;;;;;;35.30;19.10;;;;;;;;;;5024090;28;20174;-67
2022/03/29 10:32:05;;;;;;;39.03;20.60;;;;;;;;;;5025095;28;20202;-67
2022/03/29 10:34:37;;;;;;;36.17;20.02;;;;;;;;;;5022613;28;20277;-67
2022/03/29 10:37:08;;;;;;;39.03;20.50;;;;;;;;;;5024918;28;20180;-67
2022/03/29 10:39:53;;;;;;;35.42;19.98;;;;;;;;;;5025091;28;20198;-67
2022/03/29 10:42:26;;;;;;;40.60;21.23;;;;;;;;;;5022003;28;20178;-67
2022/03/29 10:45:21;;;;;;;34.75;19.60;;;;;;;;;;5024222;28;20186;-66
2022/03/29 10:48:05;;;;;;;39.72;20.75;;;;;;;;;;5020328;28;20198;-67
2022/03/29 10:50:53;;;;;;;40.70;20.55;;;;;;;;;;5019285;28;20174;-67
2022/03/29 10:53:42;;;;;;;36.90;19.73;;;;;;;;;;5023151;28;20190;-67
2022/03/29 10:56:17;;;;;;;37.13;20.92;;;;;;;;;;5009750;28;20702;-67
2022/03/29 10:59:00;;;;;;;39.45;21.17;;;;;;;;;;5011567;28;20260;-67
2022/03/29 11:01:26;;;;;;;37.40;20.05;;;;;;;;;;5023345;28;20189;-66
2022/03/29 11:04:14;;;;;;;41.63;21.85;;;;;;;;;;5021604;28;20190;-66
2022/03/29 11:07:18;;;;;;;39.30;20.05;;;;;;;;;;5024604;28;20553;-67
2022/03/29 11:09:46;;;;;;;45.25;21.67;;;;;;;;;;4975276;28;20619;-66
2022/03/29 11:12:39;;;;;;;42.28;21.67;;;;;;;;;;4978693;28;20216;-67
2022/03/29 11:15:32;;;;;;;38.00;21.58;;;;;;;;;;5000577;28;20735;-67
2022/03/29 11:17:57;;;;;;;40.85;22.23;;;;;;;;;;5023228;28;20206;-67
2022/03/29 11:20:42;;;;;;;40.25;20.90;;;;;;;;;;5026462;28;20182;-67
2022/03/29 11:23:09;;;;;;;38.65;21.02;;;;;;;;;;5025952;28;20247;-67
2022/03/29 11:25:39;;;;;;;40.50;21.40;;;;;;;;;;5022446;28;20175;-68
2022/03/29 11:28:06;;;;;;;38.70;21.42;;;;;;;;;;5024193;28;20202;-68
2022/03/29 11:30:34;;;;;;;40.30;21.27;;;;;;;;;;5028096;28;20554;-68
2022/03/29 11:33:01;;;;;;;40.45;21.67;;;;;;;;;;5028976;28;20218;-68
2022/03/29 11:35:26;;;;;;;42.72;22.08;;;;;;;;;;5025495;28;20546;-66
2022/03/29 11:37:53;;;;;;;43.38;22.52;;;;;;;;;;5024009;28;20186;-66
2022/03/29 11:40:19;;;;;;;39.67;22.13;;;;;;;;;;5024536;28;20237;-66
2022/03/29 11:42:56;;;;;;;35.55;21.33;;;;;;;;;;5027185;28;20634;-67
2022/03/29 11:45:24;;;;;;;40.67;22.50;;;;;;;;;;5026966;28;20185;-67
2022/03/29 11:47:57;;;;;;;44.97;23.45;;;;;;;;;;5028473;28;20197;-67
2022/03/29 11:50:39;;;;;;;43.58;23.13;;;;;;;;;;5026352;28;20633;-67
2022/03/29 11:53:35;;;;;;;39.65;21.75;;;;;;;;;;5025554;28;20193;-67
2022/03/29 11:56:03;;;;;;;38.03;20.48;;;;;;;;;;5019666;28;20218;-67
2022/03/29 11:58:41;;;;;;;42.63;22.50;;;;;;;;;;5026813;28;20757;-67
2022/03/29 12:01:09;;;;;;;38.15;21.50;;;;;;;;;;5022813;28;20185;-67
2022/03/29 12:03:43;;;;;;;41.08;20.98;;;;;;;;;;5025293;28;20275;-67
2022/03/29 12:06:12;;;;;;;39.90;22.27;;;;;;;;;;5023630;28;20178;-68
2022/03/29 12:08:45;;;;;;;41.00;20.92;;;;;;;;;;5025133;28;20264;-67
2022/03/29 12:11:11;;;;;;;42.00;21.38;;;;;;;;;;5025449;28;20618;-68
2022/03/29 12:13:36;;;;;;;35.42;20.60;;;;;;;;;;5025271;28;20213;-67
2022/03/29 12:16:18;;;;;;;37.72;20.42;;;;;;;;;;5024502;28;20206;-67
2022/03/29 12:18:45;;;;;;;35.80;19.70;;;;;;;;;;5023879;28;20509;-67
2022/03/29 12:21:12;;;;;;;37.83;20.20;;;;;;;;;;5024776;28;20194;-67
2022/03/29 12:23:37;;;;;;;32.60;18.90;;;;;;;;;;5024145;28;20194;-68
2022/03/29 12:26:04;;;;;;;34.90;19.25;;;;;;;;;;5024754;28;20182;-67
2022/03/29 12:28:30;;;;;;;34.55;18.95;;;;;;;;;;5027011;28;20186;-67
2022/03/29 12:30:56;;;;;;;36.53;19.75;;;;;;;;;;5023058;28;20296;-67
2022/03/29 12:33:23;;;;;;;33.97;19.60;;;;;;;;;;5025079;28;20278;-66
2022/03/29 12:36:05;;;;;;;33.88;19.15;;;;;;;;;;5022179;28;20206;-66
2022/03/29 12:38:45;;;;;;;37.88;18.98;;;;;;;;;;5024476;28;20606;-67
2022/03/29 12:41:13;;;;;;;31.20;17.95;;;;;;;;;;5024379;28;20718;-67
2022/03/29 12:43:39;;;;;;;33.80;17.75;;;;;;;;;;5026094;28;20584;-67
2022/03/29 12:46:10;;;;;;;32.58;17.30;;;;;;;;;;5021886;28;20301;-68
2022/03/29 12:48:37;;;;;;;27.98;17.58;;;;;;;;;;5019171;28;20437;-68
2022/03/29 12:51:05;;;;;;;30.83;17.38;;;;;;;;;;5021619;28;20181;-68
2022/03/29 12:53:30;;;;;;;31.75;17.15;;;;;;;;;;5018738;28;20666;-68
2022/03/29 12:55:57;;;;;;;34.33;17.50;;;;;;;;;;5021212;28;20210;-68
2022/03/29 12:58:30;;;;;;;31.73;17.45;;;;;;;;;;5027525;28;20193;-68
2022/03/29 13:00:56;;;;;;;28.08;16.85;;;;;;;;;;5016892;28;20270;-68
2022/03/29 13:03:22;;;;;;;30.20;17.92;;;;;;;;;;5024967;28;20270;-67
2022/03/29 13:05:48;;;;;;;31.27;18.13;;;;;;;;;;5021912;28;20234;-67
2022/03/29 13:08:20;;;;;;;31.38;16.70;;;;;;;;;;5023196;28;20182;-68
2022/03/29 13:10:46;;;;;;;32.22;16.70;;;;;;;;;;5022011;28;20268;-68
2022/03/29 13:13:24;;;;;;;29.15;15.88;;;;;;;;;;5023009;28;20269;-67
2022/03/29 13:15:54;;;;;;;29.27;15.90;;;;;;;;;;5018841;28;20206;-67
2022/03/29 13:18:29;;;;;;;29.63;15.85;;;;;;;;;;5022629;28;20182;-67
2022/03/29 13:21:22;;;;;;;29.17;16.15;;;;;;;;;;5024969;28;20272;-67
2022/03/29 13:23:54;;;;;;;28.42;15.45;;;;;;;;;;5020099;28;20535;-68
2022/03/29 13:26:23;;;;;;;28.70;13.68;;;;;;;;;;5021643;28;20181;-68
2022/03/29 13:28:49;;;;;;;28.15;14.82;;;;;;;;;;5025136;28;20182;-67
2022/03/29 13:31:15;;;;;;;26.02;13.35;;;;;;;;;;5022148;28;20737;-67
2022/03/29 13:33:42;;;;;;;30.70;15.02;;;;;;;;;;5024037;28;20265;-67
2022/03/29 13:36:09;;;;;;;25.13;13.63;;;;;;;;;;5023626;28;20583;-67
2022/03/29 13:38:36;;;;;;;26.27;14.98;;;;;;;;;;5022927;28;20667;-68
2022/03/29 13:41:02;;;;;;;31.48;16.08;;;;;;;;;;5025359;28;20685;-67
2022/03/29 13:43:28;;;;;;;28.58;15.90;;;;;;;;;;5024674;28;20470;-67
2022/03/29 13:45:53;;;;;;;30.13;16.23;;;;;;;;;;5022014;28;20178;-67
2022/03/29 13:48:18;;;;;;;25.83;15.25;;;;;;;;;;5024035;28;20174;-67
2022/03/29 13:50:44;;;;;;;25.60;13.18;;;;;;;;;;5022440;28;20265;-67
2022/03/29 13:53:10;;;;;;;26.25;14.50;;;;;;;;;;5023981;28;20188;-67
2022/03/29 13:55:36;;;;;;;25.92;14.45;;;;;;;;;;5024123;28;20466;-67
2022/03/29 13:58:04;;;;;;;25.35;13.52;;;;;;;;;;5021634;28;20225;-66
2022/03/29 14:00:31;;;;;;;29.55;14.40;;;;;;;;;;5020929;28;20658;-67
2022/03/29 14:02:57;;;;;;;31.85;15.65;;;;;;;;;;5018094;28;20635;-68
2022/03/29 14:05:22;;;;;;;27.88;14.40;;;;;;;;;;5021023;28;20319;-67
2022/03/29 14:07:49;;;;;;;23.85;15.18;;;;;;;;;;5023386;28;20527;-67
2022/03/29 14:10:14;;;;;;;27.80;15.50;;;;;;;;;;5021439;28;20201;-67
2022/03/29 14:12:40;;;;;;;27.02;14.75;;;;;;;;;;5023200;28;20650;-68
2022/03/29 14:15:06;;;;;;;27.08;14.38;;;;;;;;;;5022260;28;20210;-68
2022/03/29 14:17:31;;;;;;;29.77;14.90;;;;;;;;;;5024902;28;20220;-67
2022/03/29 14:19:57;;;;;;;26.48;15.00;;;;;;;;;;5023650;28;20178;-67
2022/03/29 14:22:22;;;;;;;33.42;15.52;;;;;;;;;;5023002;28;20575;-67
2022/03/29 14:24:47;;;;;;;29.05;14.15;;;;;;;;;;5026111;28;20588;-67